sensor_id;sensor_type;location;lat;lon;timestamp;P1;durP1;ratioP1;P2;durP2;ratioP2
51288;SDS011;37372;52.294;5.152;2023-11-19T00:01:22;28.58;;;4.03;;
51288;SDS011;37372;52.294;5.152;2023-11-19T00:03:48;32.70;;;3.90;;
51288;SDS011;37372;52.294;5.152;2023-11-19T00:06:14;26.60;;;4.53;;
51288;SDS011;37372;52.294;5.152;2023-11-19T00:08:42;38.92;;;4.68;;
51288;SDS011;37372;52.294;5.152;2023-11-19T00:11:09;30.15;;;3.67;;
51288;SDS011;37372;52.294;5.152;2023-11-19T00:13:34;28.20;;;4.37;;
51288;SDS011;37372;52.294;5.152;2023-11-19T00:16:00;25.20;;;3.97;;
51288;SDS011;37372;52.294;5.152;2023-11-19T00:18:25;33.93;;;3.63;;
51288;SDS011;37372;52.294;5.152;2023-11-19T00:20:50;37.53;;;3.63;;
51288;SDS011;37372;52.294;5.152;2023-11-19T00:23:16;29.00;;;4.47;;
51288;SDS011;37372;52.294;5.152;2023-11-19T00:25:41;33.50;;;4.10;;
51288;SDS011;37372;52.294;5.152;2023-11-19T00:28:07;34.23;;;3.73;;
51288;SDS011;37372;52.294;5.152;2023-11-19T00:30:33;37.17;;;4.63;;
51288;SDS011;37372;52.294;5.152;2023-11-19T00:32:58;30.43;;;4.30;;
51288;SDS011;37372;52.294;5.152;2023-11-19T00:35:23;33.17;;;4.00;;
51288;SDS011;37372;52.294;5.152;2023-11-19T00:37:48;31.77;;;3.87;;
51288;SDS011;37372;52.294;5.152;2023-11-19T00:40:14;32.00;;;4.27;;
51288;SDS011;37372;52.294;5.152;2023-11-19T00:42:41;30.35;;;3.55;;
51288;SDS011;37372;52.294;5.152;2023-11-19T00:45:06;29.37;;;4.33;;
51288;SDS011;37372;52.294;5.152;2023-11-19T00:47:34;23.30;;;3.85;;
51288;SDS011;37372;52.294;5.152;2023-11-19T00:50:01;37.17;;;3.83;;
51288;SDS011;37372;52.294;5.152;2023-11-19T00:52:27;40.83;;;4.43;;
51288;SDS011;37372;52.294;5.152;2023-11-19T00:54:52;46.07;;;5.33;;
51288;SDS011;37372;52.294;5.152;2023-11-19T00:57:17;40.10;;;4.90;;
51288;SDS011;37372;52.294;5.152;2023-11-19T00:59:43;40.17;;;5.25;;
51288;SDS011;37372;52.294;5.152;2023-11-19T01:02:09;43.65;;;4.65;;
51288;SDS011;37372;52.294;5.152;2023-11-19T01:04:35;30.63;;;4.00;;
51288;SDS011;37372;52.294;5.152;2023-11-19T01:07:02;43.92;;;5.07;;
51288;SDS011;37372;52.294;5.152;2023-11-19T01:09:30;33.22;;;4.53;;
51288;SDS011;37372;52.294;5.152;2023-11-19T01:12:00;45.03;;;6.27;;
51288;SDS011;37372;52.294;5.152;2023-11-19T01:14:27;51.80;;;5.78;;
51288;SDS011;37372;52.294;5.152;2023-11-19T01:16:52;41.78;;;6.88;;
51288;SDS011;37372;52.294;5.152;2023-11-19T01:19:19;39.03;;;4.82;;
51288;SDS011;37372;52.294;5.152;2023-11-19T01:21:44;41.03;;;4.50;;
51288;SDS011;37372;52.294;5.152;2023-11-19T01:24:10;40.33;;;4.73;;
51288;SDS011;37372;52.294;5.152;2023-11-19T01:26:38;39.90;;;4.90;;
51288;SDS011;37372;52.294;5.152;2023-11-19T01:29:04;33.95;;;5.00;;
51288;SDS011;37372;52.294;5.152;2023-11-19T01:31:30;38.57;;;4.43;;
51288;SDS011;37372;52.294;5.152;2023-11-19T01:33:59;40.33;;;4.85;;
51288;SDS011;37372;52.294;5.152;2023-11-19T01:36:24;53.10;;;5.50;;
51288;SDS011;37372;52.294;5.152;2023-11-19T01:38:50;49.17;;;5.33;;
51288;SDS011;37372;52.294;5.152;2023-11-19T01:41:15;37.53;;;3.97;;
51288;SDS011;37372;52.294;5.152;2023-11-19T01:43:41;42.50;;;4.83;;
51288;SDS011;37372;52.294;5.152;2023-11-19T01:46:07;40.67;;;4.82;;
51288;SDS011;37372;52.294;5.152;2023-11-19T01:48:34;41.70;;;4.93;;
51288;SDS011;37372;52.294;5.152;2023-11-19T01:51:02;47.60;;;4.95;;
51288;SDS011;37372;52.294;5.152;2023-11-19T01:53:29;45.90;;;4.30;;
51288;SDS011;37372;52.294;5.152;2023-11-19T01:55:55;52.47;;;5.18;;
51288;SDS011;37372;52.294;5.152;2023-11-19T01:58:22;48.00;;;5.30;;
51288;SDS011;37372;52.294;5.152;2023-11-19T02:00:48;40.70;;;4.88;;
51288;SDS011;37372;52.294;5.152;2023-11-19T02:03:13;41.40;;;5.00;;
51288;SDS011;37372;52.294;5.152;2023-11-19T02:05:39;40.17;;;4.15;;
51288;SDS011;37372;52.294;5.152;2023-11-19T02:08:05;39.70;;;4.40;;
51288;SDS011;37372;52.294;5.152;2023-11-19T02:10:30;45.13;;;4.75;;
51288;SDS011;37372;52.294;5.152;2023-11-19T02:12:57;48.90;;;4.97;;
51288;SDS011;37372;52.294;5.152;2023-11-19T02:15:23;43.25;;;4.78;;
51288;SDS011;37372;52.294;5.152;2023-11-19T02:17:51;40.93;;;4.70;;
51288;SDS011;37372;52.294;5.152;2023-11-19T02:20:17;29.00;;;4.57;;
51288;SDS011;37372;52.294;5.152;2023-11-19T02:22:48;49.17;;;6.05;;
51288;SDS011;37372;52.294;5.152;2023-11-19T02:25:29;46.05;;;4.90;;
51288;SDS011;37372;52.294;5.152;2023-11-19T02:28:00;45.60;;;5.28;;
51288;SDS011;37372;52.294;5.152;2023-11-19T02:30:28;42.90;;;5.07;;
51288;SDS011;37372;52.294;5.152;2023-11-19T02:32:58;49.67;;;5.43;;
51288;SDS011;37372;52.294;5.152;2023-11-19T02:35:26;37.53;;;5.03;;
51288;SDS011;37372;52.294;5.152;2023-11-19T02:37:53;48.35;;;4.55;;
51288;SDS011;37372;52.294;5.152;2023-11-19T02:40:19;46.95;;;4.35;;
51288;SDS011;37372;52.294;5.152;2023-11-19T02:42:44;40.63;;;4.93;;
51288;SDS011;37372;52.294;5.152;2023-11-19T02:45:10;49.20;;;5.73;;
51288;SDS011;37372;52.294;5.152;2023-11-19T02:47:42;43.03;;;5.25;;
51288;SDS011;37372;52.294;5.152;2023-11-19T02:50:08;37.65;;;4.35;;
51288;SDS011;37372;52.294;5.152;2023-11-19T02:52:39;40.70;;;4.40;;
51288;SDS011;37372;52.294;5.152;2023-11-19T02:55:06;42.30;;;5.03;;
51288;SDS011;37372;52.294;5.152;2023-11-19T02:57:35;40.33;;;4.47;;
51288;SDS011;37372;52.294;5.152;2023-11-19T03:00:01;50.10;;;5.93;;
51288;SDS011;37372;52.294;5.152;2023-11-19T03:02:38;33.05;;;3.97;;
51288;SDS011;37372;52.294;5.152;2023-11-19T03:05:09;50.35;;;4.93;;
51288;SDS011;37372;52.294;5.152;2023-11-19T03:07:35;61.37;;;6.37;;
51288;SDS011;37372;52.294;5.152;2023-11-19T03:10:01;54.72;;;5.80;;
51288;SDS011;37372;52.294;5.152;2023-11-19T03:12:26;34.30;;;4.50;;
51288;SDS011;37372;52.294;5.152;2023-11-19T03:14:52;41.43;;;5.33;;
51288;SDS011;37372;52.294;5.152;2023-11-19T03:17:17;43.47;;;4.40;;
51288;SDS011;37372;52.294;5.152;2023-11-19T03:19:43;46.13;;;4.97;;
51288;SDS011;37372;52.294;5.152;2023-11-19T03:22:09;45.77;;;4.83;;
51288;SDS011;37372;52.294;5.152;2023-11-19T03:24:36;42.55;;;4.93;;
51288;SDS011;37372;52.294;5.152;2023-11-19T03:27:01;43.83;;;5.37;;
51288;SDS011;37372;52.294;5.152;2023-11-19T03:29:26;46.40;;;5.00;;
51288;SDS011;37372;52.294;5.152;2023-11-19T03:31:53;58.58;;;5.75;;
51288;SDS011;37372;52.294;5.152;2023-11-19T03:34:19;44.30;;;5.10;;
51288;SDS011;37372;52.294;5.152;2023-11-19T03:36:44;54.15;;;6.45;;
51288;SDS011;37372;52.294;5.152;2023-11-19T03:39:10;38.47;;;5.60;;
51288;SDS011;37372;52.294;5.152;2023-11-19T03:41:36;41.67;;;4.80;;
51288;SDS011;37372;52.294;5.152;2023-11-19T03:44:01;43.38;;;5.03;;
51288;SDS011;37372;52.294;5.152;2023-11-19T03:46:26;46.27;;;4.73;;
51288;SDS011;37372;52.294;5.152;2023-11-19T03:48:52;39.37;;;4.67;;
51288;SDS011;37372;52.294;5.152;2023-11-19T03:51:18;47.30;;;5.80;;
51288;SDS011;37372;52.294;5.152;2023-11-19T03:53:46;39.40;;;5.43;;
51288;SDS011;37372;52.294;5.152;2023-11-19T03:56:11;49.78;;;6.38;;
51288;SDS011;37372;52.294;5.152;2023-11-19T03:58:37;49.47;;;5.47;;
51288;SDS011;37372;52.294;5.152;2023-11-19T04:01:04;45.47;;;5.03;;
51288;SDS011;37372;52.294;5.152;2023-11-19T04:03:30;46.35;;;5.07;;
51288;SDS011;37372;52.294;5.152;2023-11-19T04:05:56;34.60;;;4.70;;
51288;SDS011;37372;52.294;5.152;2023-11-19T04:08:21;34.35;;;4.63;;
51288;SDS011;37372;52.294;5.152;2023-11-19T04:10:47;38.00;;;4.47;;
51288;SDS011;37372;52.294;5.152;2023-11-19T04:13:13;39.45;;;4.60;;
51288;SDS011;37372;52.294;5.152;2023-11-19T04:15:41;47.83;;;5.97;;
51288;SDS011;37372;52.294;5.152;2023-11-19T04:18:08;41.25;;;4.80;;
51288;SDS011;37372;52.294;5.152;2023-11-19T04:20:34;44.80;;;5.63;;
51288;SDS011;37372;52.294;5.152;2023-11-19T04:23:00;41.35;;;4.65;;
51288;SDS011;37372;52.294;5.152;2023-11-19T04:25:25;38.03;;;4.53;;
51288;SDS011;37372;52.294;5.152;2023-11-19T04:27:51;48.37;;;5.53;;
51288;SDS011;37372;52.294;5.152;2023-11-19T04:30:17;35.83;;;4.80;;
51288;SDS011;37372;52.294;5.152;2023-11-19T04:32:46;44.35;;;4.65;;
51288;SDS011;37372;52.294;5.152;2023-11-19T04:35:14;43.70;;;3.85;;
51288;SDS011;37372;52.294;5.152;2023-11-19T04:37:39;38.97;;;4.60;;
51288;SDS011;37372;52.294;5.152;2023-11-19T04:40:04;43.57;;;5.87;;
51288;SDS011;37372;52.294;5.152;2023-11-19T04:42:30;45.45;;;5.40;;
51288;SDS011;37372;52.294;5.152;2023-11-19T04:44:57;32.80;;;4.68;;
51288;SDS011;37372;52.294;5.152;2023-11-19T04:47:22;43.60;;;4.80;;
51288;SDS011;37372;52.294;5.152;2023-11-19T04:49:48;50.33;;;5.37;;
51288;SDS011;37372;52.294;5.152;2023-11-19T04:52:13;50.33;;;4.90;;
51288;SDS011;37372;52.294;5.152;2023-11-19T04:54:41;47.33;;;4.80;;
51288;SDS011;37372;52.294;5.152;2023-11-19T04:57:08;41.88;;;5.10;;
51288;SDS011;37372;52.294;5.152;2023-11-19T04:59:37;39.65;;;4.38;;
51288;SDS011;37372;52.294;5.152;2023-11-19T05:02:03;51.00;;;4.33;;
51288;SDS011;37372;52.294;5.152;2023-11-19T05:04:29;46.20;;;4.35;;
51288;SDS011;37372;52.294;5.152;2023-11-19T05:06:55;34.40;;;4.07;;
51288;SDS011;37372;52.294;5.152;2023-11-19T05:09:21;41.87;;;4.70;;
51288;SDS011;37372;52.294;5.152;2023-11-19T05:11:47;39.93;;;4.97;;
51288;SDS011;37372;52.294;5.152;2023-11-19T05:14:13;37.42;;;3.65;;
51288;SDS011;37372;52.294;5.152;2023-11-19T05:16:41;34.33;;;3.90;;
51288;SDS011;37372;52.294;5.152;2023-11-19T05:19:08;31.67;;;4.30;;
51288;SDS011;37372;52.294;5.152;2023-11-19T05:21:37;34.58;;;4.05;;
51288;SDS011;37372;52.294;5.152;2023-11-19T05:24:02;44.43;;;5.13;;
51288;SDS011;37372;52.294;5.152;2023-11-19T05:26:31;41.85;;;4.88;;
51288;SDS011;37372;52.294;5.152;2023-11-19T05:28:57;35.47;;;4.38;;
51288;SDS011;37372;52.294;5.152;2023-11-19T05:31:22;31.30;;;3.53;;
51288;SDS011;37372;52.294;5.152;2023-11-19T05:33:47;29.53;;;3.43;;
51288;SDS011;37372;52.294;5.152;2023-11-19T05:36:13;29.67;;;3.83;;
51288;SDS011;37372;52.294;5.152;2023-11-19T05:38:39;37.28;;;4.35;;
51288;SDS011;37372;52.294;5.152;2023-11-19T05:41:05;30.73;;;3.92;;
51288;SDS011;37372;52.294;5.152;2023-11-19T05:43:31;39.70;;;5.00;;
51288;SDS011;37372;52.294;5.152;2023-11-19T05:45:57;31.83;;;3.78;;
51288;SDS011;37372;52.294;5.152;2023-11-19T05:48:22;40.80;;;4.43;;
51288;SDS011;37372;52.294;5.152;2023-11-19T05:50:47;37.58;;;4.13;;
51288;SDS011;37372;52.294;5.152;2023-11-19T05:53:15;41.63;;;3.77;;
51288;SDS011;37372;52.294;5.152;2023-11-19T05:55:41;36.03;;;4.53;;
51288;SDS011;37372;52.294;5.152;2023-11-19T05:58:14;26.75;;;3.40;;
51288;SDS011;37372;52.294;5.152;2023-11-19T06:00:40;27.70;;;3.35;;
51288;SDS011;37372;52.294;5.152;2023-11-19T06:03:08;33.60;;;4.17;;
51288;SDS011;37372;52.294;5.152;2023-11-19T06:05:33;23.15;;;3.13;;
51288;SDS011;37372;52.294;5.152;2023-11-19T06:07:58;24.30;;;4.00;;
51288;SDS011;37372;52.294;5.152;2023-11-19T06:10:24;28.37;;;3.50;;
51288;SDS011;37372;52.294;5.152;2023-11-19T06:12:57;35.67;;;3.83;;
51288;SDS011;37372;52.294;5.152;2023-11-19T06:15:25;25.77;;;3.50;;
51288;SDS011;37372;52.294;5.152;2023-11-19T06:17:52;47.50;;;3.88;;
51288;SDS011;37372;52.294;5.152;2023-11-19T06:20:17;38.40;;;3.83;;
51288;SDS011;37372;52.294;5.152;2023-11-19T06:22:44;26.65;;;3.72;;
51288;SDS011;37372;52.294;5.152;2023-11-19T06:25:10;37.10;;;4.93;;
51288;SDS011;37372;52.294;5.152;2023-11-19T06:27:36;29.00;;;3.60;;
51288;SDS011;37372;52.294;5.152;2023-11-19T06:30:02;27.10;;;4.37;;
51288;SDS011;37372;52.294;5.152;2023-11-19T06:32:28;36.03;;;3.47;;
51288;SDS011;37372;52.294;5.152;2023-11-19T06:34:54;36.30;;;4.60;;
51288;SDS011;37372;52.294;5.152;2023-11-19T06:37:19;41.70;;;4.13;;
51288;SDS011;37372;52.294;5.152;2023-11-19T06:39:45;35.17;;;4.00;;
51288;SDS011;37372;52.294;5.152;2023-11-19T06:42:11;35.55;;;4.00;;
51288;SDS011;37372;52.294;5.152;2023-11-19T06:44:36;29.80;;;3.43;;
51288;SDS011;37372;52.294;5.152;2023-11-19T06:47:02;35.77;;;3.83;;
51288;SDS011;37372;52.294;5.152;2023-11-19T06:49:27;38.30;;;4.38;;
51288;SDS011;37372;52.294;5.152;2023-11-19T06:51:52;45.00;;;4.43;;
51288;SDS011;37372;52.294;5.152;2023-11-19T06:54:18;33.87;;;4.47;;
51288;SDS011;37372;52.294;5.152;2023-11-19T06:56:43;33.80;;;3.67;;
51288;SDS011;37372;52.294;5.152;2023-11-19T06:59:09;32.83;;;4.10;;
51288;SDS011;37372;52.294;5.152;2023-11-19T07:01:35;30.80;;;4.13;;
51288;SDS011;37372;52.294;5.152;2023-11-19T07:04:01;31.67;;;3.40;;
51288;SDS011;37372;52.294;5.152;2023-11-19T07:06:34;28.90;;;4.03;;
51288;SDS011;37372;52.294;5.152;2023-11-19T07:08:59;34.95;;;4.10;;
51288;SDS011;37372;52.294;5.152;2023-11-19T07:11:34;31.80;;;3.75;;
51288;SDS011;37372;52.294;5.152;2023-11-19T07:14:00;23.73;;;3.45;;
51288;SDS011;37372;52.294;5.152;2023-11-19T07:16:25;28.70;;;4.10;;
51288;SDS011;37372;52.294;5.152;2023-11-19T07:18:51;29.00;;;3.50;;
51288;SDS011;37372;52.294;5.152;2023-11-19T07:21:16;37.47;;;3.50;;
51288;SDS011;37372;52.294;5.152;2023-11-19T07:23:42;35.13;;;3.38;;
51288;SDS011;37372;52.294;5.152;2023-11-19T07:26:08;31.87;;;3.93;;
51288;SDS011;37372;52.294;5.152;2023-11-19T07:28:34;28.85;;;3.15;;
51288;SDS011;37372;52.294;5.152;2023-11-19T07:30:59;30.23;;;3.63;;
51288;SDS011;37372;52.294;5.152;2023-11-19T07:33:25;22.80;;;3.30;;
51288;SDS011;37372;52.294;5.152;2023-11-19T07:35:50;34.10;;;4.70;;
51288;SDS011;37372;52.294;5.152;2023-11-19T07:38:16;35.93;;;3.63;;
51288;SDS011;37372;52.294;5.152;2023-11-19T07:40:42;30.60;;;3.23;;
51288;SDS011;37372;52.294;5.152;2023-11-19T07:43:08;32.03;;;4.13;;
51288;SDS011;37372;52.294;5.152;2023-11-19T07:45:33;40.63;;;4.70;;
51288;SDS011;37372;52.294;5.152;2023-11-19T07:47:59;29.73;;;3.92;;
51288;SDS011;37372;52.294;5.152;2023-11-19T07:50:26;33.58;;;3.17;;
51288;SDS011;37372;52.294;5.152;2023-11-19T07:52:52;31.90;;;3.60;;
51288;SDS011;37372;52.294;5.152;2023-11-19T07:55:18;32.67;;;3.80;;
51288;SDS011;37372;52.294;5.152;2023-11-19T07:57:44;35.65;;;3.40;;
51288;SDS011;37372;52.294;5.152;2023-11-19T08:00:09;28.37;;;3.03;;
51288;SDS011;37372;52.294;5.152;2023-11-19T08:02:39;34.70;;;4.68;;
51288;SDS011;37372;52.294;5.152;2023-11-19T08:05:05;40.50;;;4.73;;
51288;SDS011;37372;52.294;5.152;2023-11-19T08:07:30;34.10;;;3.67;;
51288;SDS011;37372;52.294;5.152;2023-11-19T08:09:56;27.00;;;3.73;;
51288;SDS011;37372;52.294;5.152;2023-11-19T08:12:21;33.58;;;3.95;;
51288;SDS011;37372;52.294;5.152;2023-11-19T08:14:47;29.93;;;3.47;;
51288;SDS011;37372;52.294;5.152;2023-11-19T08:17:12;34.67;;;4.57;;
51288;SDS011;37372;52.294;5.152;2023-11-19T08:19:37;26.43;;;3.37;;
51288;SDS011;37372;52.294;5.152;2023-11-19T08:22:03;33.47;;;3.70;;
51288;SDS011;37372;52.294;5.152;2023-11-19T08:24:28;28.80;;;3.63;;
51288;SDS011;37372;52.294;5.152;2023-11-19T08:26:54;33.17;;;3.40;;
51288;SDS011;37372;52.294;5.152;2023-11-19T08:29:19;27.13;;;3.30;;
51288;SDS011;37372;52.294;5.152;2023-11-19T08:31:45;29.63;;;3.57;;
51288;SDS011;37372;52.294;5.152;2023-11-19T08:34:11;32.97;;;3.90;;
51288;SDS011;37372;52.294;5.152;2023-11-19T08:36:36;25.50;;;3.60;;
51288;SDS011;37372;52.294;5.152;2023-11-19T08:39:02;27.97;;;4.00;;
51288;SDS011;37372;52.294;5.152;2023-11-19T08:41:28;28.63;;;3.72;;
51288;SDS011;37372;52.294;5.152;2023-11-19T08:43:53;35.97;;;4.13;;
51288;SDS011;37372;52.294;5.152;2023-11-19T08:46:18;29.33;;;2.90;;
51288;SDS011;37372;52.294;5.152;2023-11-19T08:48:44;28.27;;;3.00;;
51288;SDS011;37372;52.294;5.152;2023-11-19T08:51:11;31.43;;;3.30;;
51288;SDS011;37372;52.294;5.152;2023-11-19T08:53:37;29.90;;;3.47;;
51288;SDS011;37372;52.294;5.152;2023-11-19T08:56:03;37.33;;;4.18;;
51288;SDS011;37372;52.294;5.152;2023-11-19T08:58:29;36.83;;;4.97;;
51288;SDS011;37372;52.294;5.152;2023-11-19T09:00:55;27.67;;;3.92;;
51288;SDS011;37372;52.294;5.152;2023-11-19T09:03:21;27.13;;;3.17;;
51288;SDS011;37372;52.294;5.152;2023-11-19T09:05:46;32.27;;;3.63;;
51288;SDS011;37372;52.294;5.152;2023-11-19T09:08:12;28.87;;;3.80;;
51288;SDS011;37372;52.294;5.152;2023-11-19T09:10:37;30.10;;;3.73;;
51288;SDS011;37372;52.294;5.152;2023-11-19T09:13:02;31.03;;;3.47;;
51288;SDS011;37372;52.294;5.152;2023-11-19T09:15:29;37.53;;;4.10;;
51288;SDS011;37372;52.294;5.152;2023-11-19T09:17:54;30.88;;;3.38;;
51288;SDS011;37372;52.294;5.152;2023-11-19T09:20:21;29.42;;;3.83;;
51288;SDS011;37372;52.294;5.152;2023-11-19T09:22:46;32.30;;;3.47;;
51288;SDS011;37372;52.294;5.152;2023-11-19T09:25:12;36.43;;;4.47;;
51288;SDS011;37372;52.294;5.152;2023-11-19T09:27:41;37.63;;;3.90;;
51288;SDS011;37372;52.294;5.152;2023-11-19T09:30:07;30.53;;;3.57;;
51288;SDS011;37372;52.294;5.152;2023-11-19T09:32:32;30.80;;;4.32;;
51288;SDS011;37372;52.294;5.152;2023-11-19T09:34:59;27.07;;;3.70;;
51288;SDS011;37372;52.294;5.152;2023-11-19T09:37:25;30.70;;;3.90;;
51288;SDS011;37372;52.294;5.152;2023-11-19T09:39:50;33.33;;;3.67;;
51288;SDS011;37372;52.294;5.152;2023-11-19T09:42:16;36.97;;;4.20;;
51288;SDS011;37372;52.294;5.152;2023-11-19T09:44:42;31.70;;;3.70;;
51288;SDS011;37372;52.294;5.152;2023-11-19T09:47:11;42.92;;;5.00;;
51288;SDS011;37372;52.294;5.152;2023-11-19T09:49:38;33.30;;;4.35;;
51288;SDS011;37372;52.294;5.152;2023-11-19T09:52:04;29.38;;;4.00;;
51288;SDS011;37372;52.294;5.152;2023-11-19T09:54:30;28.57;;;3.13;;
51288;SDS011;37372;52.294;5.152;2023-11-19T09:56:56;28.92;;;4.35;;
51288;SDS011;37372;52.294;5.152;2023-11-19T09:59:27;28.05;;;3.45;;
51288;SDS011;37372;52.294;5.152;2023-11-19T10:01:53;29.25;;;4.10;;
51288;SDS011;37372;52.294;5.152;2023-11-19T10:04:19;34.70;;;4.53;;
51288;SDS011;37372;52.294;5.152;2023-11-19T10:06:46;27.75;;;3.40;;
51288;SDS011;37372;52.294;5.152;2023-11-19T10:09:12;31.15;;;3.33;;
51288;SDS011;37372;52.294;5.152;2023-11-19T10:11:40;30.03;;;3.50;;
51288;SDS011;37372;52.294;5.152;2023-11-19T10:14:05;24.13;;;3.60;;
51288;SDS011;37372;52.294;5.152;2023-11-19T10:16:31;28.53;;;3.23;;
51288;SDS011;37372;52.294;5.152;2023-11-19T10:18:59;24.02;;;3.33;;
51288;SDS011;37372;52.294;5.152;2023-11-19T10:21:25;30.57;;;3.30;;
51288;SDS011;37372;52.294;5.152;2023-11-19T10:26:21;31.83;;;3.40;;
51288;SDS011;37372;52.294;5.152;2023-11-19T10:28:47;27.43;;;3.40;;
51288;SDS011;37372;52.294;5.152;2023-11-19T10:31:13;28.13;;;3.35;;
51288;SDS011;37372;52.294;5.152;2023-11-19T10:33:43;34.60;;;4.05;;
51288;SDS011;37372;52.294;5.152;2023-11-19T10:36:10;28.13;;;3.80;;
51288;SDS011;37372;52.294;5.152;2023-11-19T10:38:37;25.50;;;3.13;;
51288;SDS011;37372;52.294;5.152;2023-11-19T10:41:03;24.15;;;3.20;;
51288;SDS011;37372;52.294;5.152;2023-11-19T10:43:30;24.30;;;2.72;;
51288;SDS011;37372;52.294;5.152;2023-11-19T10:46:17;20.40;;;2.35;;
51288;SDS011;37372;52.294;5.152;2023-11-19T10:48:45;23.07;;;2.67;;
51288;SDS011;37372;52.294;5.152;2023-11-19T10:51:11;27.20;;;3.17;;
51288;SDS011;37372;52.294;5.152;2023-11-19T10:53:39;29.23;;;2.90;;
51288;SDS011;37372;52.294;5.152;2023-11-19T10:56:10;25.60;;;2.72;;
51288;SDS011;37372;52.294;5.152;2023-11-19T10:58:36;29.00;;;3.20;;
51288;SDS011;37372;52.294;5.152;2023-11-19T11:01:11;20.75;;;2.72;;
51288;SDS011;37372;52.294;5.152;2023-11-19T11:03:41;30.35;;;3.13;;
51288;SDS011;37372;52.294;5.152;2023-11-19T11:06:08;19.83;;;2.50;;
51288;SDS011;37372;52.294;5.152;2023-11-19T11:08:36;20.15;;;2.75;;
51288;SDS011;37372;52.294;5.152;2023-11-19T11:11:02;29.30;;;3.55;;
51288;SDS011;37372;52.294;5.152;2023-11-19T11:13:30;24.75;;;2.78;;
51288;SDS011;37372;52.294;5.152;2023-11-19T11:15:56;23.05;;;3.58;;
51288;SDS011;37372;52.294;5.152;2023-11-19T11:18:23;26.30;;;3.80;;
51288;SDS011;37372;52.294;5.152;2023-11-19T11:26:00;20.90;;;2.57;;
51288;SDS011;37372;52.294;5.152;2023-11-19T11:37:18;25.20;;;2.97;;
51288;SDS011;37372;52.294;5.152;2023-11-19T11:39:55;21.02;;;2.88;;
51288;SDS011;37372;52.294;5.152;2023-11-19T11:42:30;20.08;;;2.70;;
51288;SDS011;37372;52.294;5.152;2023-11-19T11:45:01;20.85;;;2.78;;
51288;SDS011;37372;52.294;5.152;2023-11-19T11:50:16;21.60;;;2.60;;
51288;SDS011;37372;52.294;5.152;2023-11-19T11:55:33;22.20;;;3.30;;
51288;SDS011;37372;52.294;5.152;2023-11-19T11:58:01;19.90;;;3.17;;
51288;SDS011;37372;52.294;5.152;2023-11-19T12:00:39;18.73;;;2.35;;
51288;SDS011;37372;52.294;5.152;2023-11-19T12:03:07;30.17;;;3.27;;
51288;SDS011;37372;52.294;5.152;2023-11-19T12:05:41;19.00;;;2.67;;
51288;SDS011;37372;52.294;5.152;2023-11-19T12:08:10;23.85;;;3.20;;
51288;SDS011;37372;52.294;5.152;2023-11-19T12:10:46;20.10;;;2.78;;
51288;SDS011;37372;52.294;5.152;2023-11-19T12:13:14;25.00;;;2.85;;
51288;SDS011;37372;52.294;5.152;2023-11-19T12:18:23;25.55;;;2.65;;
51288;SDS011;37372;52.294;5.152;2023-11-19T12:20:50;17.75;;;2.40;;
51288;SDS011;37372;52.294;5.152;2023-11-19T12:23:16;22.30;;;3.57;;
51288;SDS011;37372;52.294;5.152;2023-11-19T12:25:41;21.10;;;2.97;;
51288;SDS011;37372;52.294;5.152;2023-11-19T12:28:11;21.90;;;3.00;;
51288;SDS011;37372;52.294;5.152;2023-11-19T12:30:38;24.83;;;4.07;;
51288;SDS011;37372;52.294;5.152;2023-11-19T12:33:08;22.23;;;4.47;;
51288;SDS011;37372;52.294;5.152;2023-11-19T12:35:46;22.60;;;2.55;;
51288;SDS011;37372;52.294;5.152;2023-11-19T12:38:22;22.58;;;2.63;;
51288;SDS011;37372;52.294;5.152;2023-11-19T12:41:08;15.57;;;2.63;;
51288;SDS011;37372;52.294;5.152;2023-11-19T12:43:42;24.65;;;2.95;;
51288;SDS011;37372;52.294;5.152;2023-11-19T12:48:43;26.27;;;4.20;;
51288;SDS011;37372;52.294;5.152;2023-11-19T12:51:09;17.60;;;2.43;;
51288;SDS011;37372;52.294;5.152;2023-11-19T12:53:46;21.65;;;3.45;;
51288;SDS011;37372;52.294;5.152;2023-11-19T12:56:19;18.25;;;2.63;;
51288;SDS011;37372;52.294;5.152;2023-11-19T12:58:46;21.00;;;2.80;;
51288;SDS011;37372;52.294;5.152;2023-11-19T13:01:15;23.33;;;2.67;;
51288;SDS011;37372;52.294;5.152;2023-11-19T13:03:45;14.48;;;2.28;;
51288;SDS011;37372;52.294;5.152;2023-11-19T13:06:12;14.43;;;2.00;;
51288;SDS011;37372;52.294;5.152;2023-11-19T13:08:42;15.02;;;2.40;;
51288;SDS011;37372;52.294;5.152;2023-11-19T13:11:09;21.07;;;2.50;;
51288;SDS011;37372;52.294;5.152;2023-11-19T13:16:37;16.75;;;2.50;;
51288;SDS011;37372;52.294;5.152;2023-11-19T13:19:03;16.13;;;2.00;;
51288;SDS011;37372;52.294;5.152;2023-11-19T13:21:30;16.43;;;2.40;;
51288;SDS011;37372;52.294;5.152;2023-11-19T13:23:56;16.65;;;2.40;;
51288;SDS011;37372;52.294;5.152;2023-11-19T13:26:21;20.63;;;2.30;;
51288;SDS011;37372;52.294;5.152;2023-11-19T13:28:48;20.33;;;2.58;;
51288;SDS011;37372;52.294;5.152;2023-11-19T13:31:14;17.13;;;2.30;;
51288;SDS011;37372;52.294;5.152;2023-11-19T13:33:40;21.33;;;2.33;;
51288;SDS011;37372;52.294;5.152;2023-11-19T13:36:06;22.02;;;2.83;;
51288;SDS011;37372;52.294;5.152;2023-11-19T13:38:33;20.00;;;2.30;;
51288;SDS011;37372;52.294;5.152;2023-11-19T13:41:00;19.48;;;2.83;;
51288;SDS011;37372;52.294;5.152;2023-11-19T13:43:26;21.63;;;2.73;;
51288;SDS011;37372;52.294;5.152;2023-11-19T13:45:54;21.05;;;2.53;;
51288;SDS011;37372;52.294;5.152;2023-11-19T13:48:19;20.58;;;2.67;;
51288;SDS011;37372;52.294;5.152;2023-11-19T13:50:45;23.27;;;3.17;;
51288;SDS011;37372;52.294;5.152;2023-11-19T13:53:10;22.23;;;3.40;;
51288;SDS011;37372;52.294;5.152;2023-11-19T13:55:36;25.23;;;3.10;;
51288;SDS011;37372;52.294;5.152;2023-11-19T13:58:01;26.63;;;3.03;;
51288;SDS011;37372;52.294;5.152;2023-11-19T14:00:26;17.67;;;2.33;;
51288;SDS011;37372;52.294;5.152;2023-11-19T14:02:52;30.83;;;3.60;;
51288;SDS011;37372;52.294;5.152;2023-11-19T14:05:18;20.27;;;2.83;;
51288;SDS011;37372;52.294;5.152;2023-11-19T14:07:44;21.75;;;2.53;;
51288;SDS011;37372;52.294;5.152;2023-11-19T14:10:13;25.90;;;3.30;;
51288;SDS011;37372;52.294;5.152;2023-11-19T14:12:39;21.85;;;3.53;;
51288;SDS011;37372;52.294;5.152;2023-11-19T14:15:06;23.42;;;2.50;;
51288;SDS011;37372;52.294;5.152;2023-11-19T14:17:33;19.98;;;2.70;;
51288;SDS011;37372;52.294;5.152;2023-11-19T14:20:02;19.63;;;2.80;;
51288;SDS011;37372;52.294;5.152;2023-11-19T14:22:47;17.63;;;2.37;;
51288;SDS011;37372;52.294;5.152;2023-11-19T14:25:14;23.23;;;3.38;;
51288;SDS011;37372;52.294;5.152;2023-11-19T14:27:40;16.48;;;2.30;;
51288;SDS011;37372;52.294;5.152;2023-11-19T14:30:07;25.23;;;3.00;;
51288;SDS011;37372;52.294;5.152;2023-11-19T14:32:36;19.83;;;2.80;;
51288;SDS011;37372;52.294;5.152;2023-11-19T14:35:03;24.70;;;3.17;;
51288;SDS011;37372;52.294;5.152;2023-11-19T14:37:29;22.88;;;3.90;;
51288;SDS011;37372;52.294;5.152;2023-11-19T14:39:58;24.52;;;3.08;;
51288;SDS011;37372;52.294;5.152;2023-11-19T14:42:24;22.43;;;3.10;;
51288;SDS011;37372;52.294;5.152;2023-11-19T14:44:50;39.95;;;4.35;;
51288;SDS011;37372;52.294;5.152;2023-11-19T14:47:20;26.48;;;3.15;;
51288;SDS011;37372;52.294;5.152;2023-11-19T14:49:45;29.37;;;3.60;;
51288;SDS011;37372;52.294;5.152;2023-11-19T14:52:11;23.97;;;2.60;;
51288;SDS011;37372;52.294;5.152;2023-11-19T14:54:36;27.02;;;3.30;;
51288;SDS011;37372;52.294;5.152;2023-11-19T14:57:04;30.05;;;3.45;;
51288;SDS011;37372;52.294;5.152;2023-11-19T14:59:31;19.83;;;2.93;;
51288;SDS011;37372;52.294;5.152;2023-11-19T15:01:58;29.45;;;3.28;;